sensor_id;sensor_type;location;lat;lon;timestamp;P1;durP1;ratioP1;P2;durP2;ratioP2
59555;SDS011;45374;52.746;6.304;2022-09-09T00:00:23;17.17;;;10.65;;
59555;SDS011;45374;52.746;6.304;2022-09-09T00:03:08;17.98;;;9.82;;
59555;SDS011;45374;52.746;6.304;2022-09-09T00:08:21;13.48;;;9.27;;
59555;SDS011;45374;52.746;6.304;2022-09-09T00:10:56;17.20;;;10.35;;
59555;SDS011;45374;52.746;6.304;2022-09-09T00:13:34;15.48;;;8.82;;
59555;SDS011;45374;52.746;6.304;2022-09-09T00:16:15;11.95;;;8.77;;
59555;SDS011;45374;52.746;6.304;2022-09-09T00:19:14;13.77;;;8.68;;
59555;SDS011;45374;52.746;6.304;2022-09-09T00:24:50;12.75;;;9.02;;
59555;SDS011;45374;52.746;6.304;2022-09-09T00:27:38;17.50;;;9.60;;
59555;SDS011;45374;52.746;6.304;2022-09-09T00:32:43;16.13;;;10.60;;
59555;SDS011;45374;52.746;6.304;2022-09-09T00:37:35;16.27;;;10.00;;
59555;SDS011;45374;52.746;6.304;2022-09-09T00:40:01;17.38;;;10.70;;
59555;SDS011;45374;52.746;6.304;2022-09-09T00:42:42;21.50;;;10.32;;
59555;SDS011;45374;52.746;6.304;2022-09-09T00:47:58;18.52;;;10.07;;
59555;SDS011;45374;52.746;6.304;2022-09-09T00:55:33;19.00;;;10.23;;
59555;SDS011;45374;52.746;6.304;2022-09-09T00:58:10;16.63;;;9.65;;
59555;SDS011;45374;52.746;6.304;2022-09-09T01:00:39;16.45;;;9.43;;
59555;SDS011;45374;52.746;6.304;2022-09-09T01:03:22;15.18;;;11.00;;
59555;SDS011;45374;52.746;6.304;2022-09-09T01:06:16;25.50;;;11.23;;
59555;SDS011;45374;52.746;6.304;2022-09-09T01:14:50;19.50;;;11.05;;
59555;SDS011;45374;52.746;6.304;2022-09-09T01:17:30;28.55;;;12.57;;
59555;SDS011;45374;52.746;6.304;2022-09-09T01:20:13;24.08;;;11.70;;
59555;SDS011;45374;52.746;6.304;2022-09-09T01:22:44;26.67;;;11.52;;
59555;SDS011;45374;52.746;6.304;2022-09-09T01:28:30;22.23;;;10.68;;
59555;SDS011;45374;52.746;6.304;2022-09-09T01:30:57;21.05;;;11.23;;
59555;SDS011;45374;52.746;6.304;2022-09-09T01:33:25;30.38;;;11.38;;
59555;SDS011;45374;52.746;6.304;2022-09-09T01:35:52;30.42;;;12.05;;
59555;SDS011;45374;52.746;6.304;2022-09-09T01:40:49;40.63;;;13.07;;
59555;SDS011;45374;52.746;6.304;2022-09-09T01:43:18;43.97;;;14.95;;
59555;SDS011;45374;52.746;6.304;2022-09-09T01:45:47;24.30;;;12.88;;
59555;SDS011;45374;52.746;6.304;2022-09-09T01:48:17;23.15;;;12.05;;
59555;SDS011;45374;52.746;6.304;2022-09-09T01:50:43;26.73;;;13.27;;
59555;SDS011;45374;52.746;6.304;2022-09-09T01:53:09;34.28;;;13.75;;
59555;SDS011;45374;52.746;6.304;2022-09-09T01:55:40;23.70;;;11.18;;
59555;SDS011;45374;52.746;6.304;2022-09-09T01:58:20;24.00;;;11.07;;
59555;SDS011;45374;52.746;6.304;2022-09-09T02:01:12;24.67;;;11.68;;
59555;SDS011;45374;52.746;6.304;2022-09-09T02:03:52;17.75;;;10.02;;
59555;SDS011;45374;52.746;6.304;2022-09-09T02:06:39;20.45;;;10.75;;
59555;SDS011;45374;52.746;6.304;2022-09-09T02:09:06;21.95;;;11.48;;
59555;SDS011;45374;52.746;6.304;2022-09-09T02:11:36;22.40;;;10.25;;
59555;SDS011;45374;52.746;6.304;2022-09-09T02:14:05;19.25;;;10.43;;
59555;SDS011;45374;52.746;6.304;2022-09-09T02:19:01;25.88;;;11.10;;
59555;SDS011;45374;52.746;6.304;2022-09-09T02:21:33;21.33;;;9.45;;
59555;SDS011;45374;52.746;6.304;2022-09-09T02:24:02;19.60;;;9.65;;
59555;SDS011;45374;52.746;6.304;2022-09-09T02:29:01;22.45;;;9.75;;
59555;SDS011;45374;52.746;6.304;2022-09-09T02:31:30;23.27;;;10.20;;
59555;SDS011;45374;52.746;6.304;2022-09-09T02:34:00;26.15;;;10.65;;
59555;SDS011;45374;52.746;6.304;2022-09-09T02:36:29;22.08;;;10.25;;
59555;SDS011;45374;52.746;6.304;2022-09-09T02:38:58;26.70;;;10.60;;
59555;SDS011;45374;52.746;6.304;2022-09-09T02:41:27;27.70;;;10.80;;
59555;SDS011;45374;52.746;6.304;2022-09-09T02:43:56;21.27;;;10.68;;
59555;SDS011;45374;52.746;6.304;2022-09-09T02:46:42;25.33;;;11.38;;
59555;SDS011;45374;52.746;6.304;2022-09-09T02:49:15;26.67;;;11.43;;
59555;SDS011;45374;52.746;6.304;2022-09-09T02:52:07;17.48;;;8.93;;
59555;SDS011;45374;52.746;6.304;2022-09-09T02:54:37;24.25;;;10.88;;
59555;SDS011;45374;52.746;6.304;2022-09-09T02:59:37;24.20;;;10.52;;
59555;SDS011;45374;52.746;6.304;2022-09-09T03:02:03;26.35;;;10.52;;
59555;SDS011;45374;52.746;6.304;2022-09-09T03:04:30;25.25;;;10.98;;
59555;SDS011;45374;52.746;6.304;2022-09-09T03:06:56;19.90;;;9.35;;
59555;SDS011;45374;52.746;6.304;2022-09-09T03:09:23;28.67;;;11.35;;
59555;SDS011;45374;52.746;6.304;2022-09-09T03:11:48;26.48;;;10.60;;
59555;SDS011;45374;52.746;6.304;2022-09-09T03:14:15;18.35;;;9.23;;
59555;SDS011;45374;52.746;6.304;2022-09-09T03:16:41;20.92;;;9.27;;
59555;SDS011;45374;52.746;6.304;2022-09-09T03:19:08;19.00;;;9.32;;
59555;SDS011;45374;52.746;6.304;2022-09-09T03:21:34;20.65;;;8.90;;
59555;SDS011;45374;52.746;6.304;2022-09-09T03:24:00;16.17;;;8.57;;
59555;SDS011;45374;52.746;6.304;2022-09-09T03:26:28;24.27;;;9.77;;
59555;SDS011;45374;52.746;6.304;2022-09-09T03:28:54;21.33;;;8.90;;
59555;SDS011;45374;52.746;6.304;2022-09-09T03:31:20;15.65;;;8.30;;
59555;SDS011;45374;52.746;6.304;2022-09-09T03:33:46;16.65;;;8.57;;
59555;SDS011;45374;52.746;6.304;2022-09-09T03:36:11;16.05;;;7.95;;
59555;SDS011;45374;52.746;6.304;2022-09-09T03:38:37;18.70;;;8.98;;
59555;SDS011;45374;52.746;6.304;2022-09-09T03:41:02;18.55;;;9.07;;
59555;SDS011;45374;52.746;6.304;2022-09-09T03:43:28;21.65;;;9.30;;
59555;SDS011;45374;52.746;6.304;2022-09-09T03:45:54;21.98;;;8.90;;
59555;SDS011;45374;52.746;6.304;2022-09-09T03:48:24;23.70;;;8.88;;
59555;SDS011;45374;52.746;6.304;2022-09-09T03:50:51;16.85;;;8.48;;
59555;SDS011;45374;52.746;6.304;2022-09-09T03:53:18;21.45;;;8.60;;
59555;SDS011;45374;52.746;6.304;2022-09-09T03:55:46;23.98;;;9.20;;
59555;SDS011;45374;52.746;6.304;2022-09-09T03:58:15;16.85;;;8.25;;
59555;SDS011;45374;52.746;6.304;2022-09-09T04:00:43;16.52;;;7.82;;
59555;SDS011;45374;52.746;6.304;2022-09-09T04:03:18;18.42;;;8.15;;
59555;SDS011;45374;52.746;6.304;2022-09-09T04:05:44;18.05;;;7.68;;
59555;SDS011;45374;52.746;6.304;2022-09-09T04:08:09;27.70;;;8.95;;
59555;SDS011;45374;52.746;6.304;2022-09-09T04:10:36;16.10;;;7.80;;
59555;SDS011;45374;52.746;6.304;2022-09-09T04:13:02;21.00;;;9.68;;
59555;SDS011;45374;52.746;6.304;2022-09-09T04:15:29;27.05;;;10.25;;
59555;SDS011;45374;52.746;6.304;2022-09-09T04:17:55;26.20;;;10.65;;
59555;SDS011;45374;52.746;6.304;2022-09-09T04:20:21;30.58;;;11.35;;
59555;SDS011;45374;52.746;6.304;2022-09-09T04:22:47;26.92;;;10.70;;
59555;SDS011;45374;52.746;6.304;2022-09-09T04:25:13;27.35;;;11.57;;
59555;SDS011;45374;52.746;6.304;2022-09-09T04:27:39;39.42;;;13.23;;
59555;SDS011;45374;52.746;6.304;2022-09-09T04:30:05;24.55;;;11.60;;
59555;SDS011;45374;52.746;6.304;2022-09-09T04:32:35;26.55;;;12.02;;
59555;SDS011;45374;52.746;6.304;2022-09-09T04:35:02;36.80;;;13.27;;
59555;SDS011;45374;52.746;6.304;2022-09-09T04:37:28;28.63;;;12.90;;
59555;SDS011;45374;52.746;6.304;2022-09-09T04:39:53;39.33;;;13.70;;
59555;SDS011;45374;52.746;6.304;2022-09-09T04:42:19;35.13;;;13.40;;
59555;SDS011;45374;52.746;6.304;2022-09-09T04:44:44;28.95;;;12.07;;
59555;SDS011;45374;52.746;6.304;2022-09-09T04:47:10;24.98;;;12.18;;
59555;SDS011;45374;52.746;6.304;2022-09-09T04:49:36;25.60;;;11.68;;
59555;SDS011;45374;52.746;6.304;2022-09-09T04:52:03;36.17;;;12.55;;
59555;SDS011;45374;52.746;6.304;2022-09-09T04:54:29;34.75;;;12.88;;
59555;SDS011;45374;52.746;6.304;2022-09-09T04:56:55;31.10;;;12.55;;
59555;SDS011;45374;52.746;6.304;2022-09-09T04:59:21;29.80;;;11.25;;
59555;SDS011;45374;52.746;6.304;2022-09-09T05:01:47;21.73;;;11.18;;
59555;SDS011;45374;52.746;6.304;2022-09-09T05:04:14;23.00;;;11.07;;
59555;SDS011;45374;52.746;6.304;2022-09-09T05:06:44;20.88;;;9.80;;
59555;SDS011;45374;52.746;6.304;2022-09-09T05:09:10;22.40;;;10.80;;
59555;SDS011;45374;52.746;6.304;2022-09-09T05:11:36;28.63;;;11.93;;
59555;SDS011;45374;52.746;6.304;2022-09-09T05:14:03;18.70;;;9.43;;
59555;SDS011;45374;52.746;6.304;2022-09-09T05:16:29;23.00;;;10.23;;
59555;SDS011;45374;52.746;6.304;2022-09-09T05:18:55;23.15;;;10.95;;
59555;SDS011;45374;52.746;6.304;2022-09-09T05:21:21;22.60;;;10.55;;
59555;SDS011;45374;52.746;6.304;2022-09-09T05:23:48;23.27;;;10.57;;
59555;SDS011;45374;52.746;6.304;2022-09-09T05:26:16;19.98;;;9.77;;
59555;SDS011;45374;52.746;6.304;2022-09-09T05:28:43;15.13;;;9.20;;
59555;SDS011;45374;52.746;6.304;2022-09-09T05:31:10;24.80;;;11.20;;
59555;SDS011;45374;52.746;6.304;2022-09-09T05:33:37;20.83;;;11.00;;
59555;SDS011;45374;52.746;6.304;2022-09-09T05:36:06;17.40;;;10.38;;
59555;SDS011;45374;52.746;6.304;2022-09-09T05:38:34;20.35;;;10.25;;
59555;SDS011;45374;52.746;6.304;2022-09-09T05:41:00;20.92;;;10.57;;
59555;SDS011;45374;52.746;6.304;2022-09-09T05:43:27;22.10;;;11.55;;
59555;SDS011;45374;52.746;6.304;2022-09-09T05:48:30;28.40;;;12.80;;
59555;SDS011;45374;52.746;6.304;2022-09-09T05:50:57;19.55;;;10.40;;
59555;SDS011;45374;52.746;6.304;2022-09-09T05:53:28;24.40;;;11.13;;
59555;SDS011;45374;52.746;6.304;2022-09-09T05:56:07;19.15;;;10.50;;
59555;SDS011;45374;52.746;6.304;2022-09-09T05:58:39;33.75;;;12.27;;
59555;SDS011;45374;52.746;6.304;2022-09-09T06:01:06;29.33;;;11.68;;
59555;SDS011;45374;52.746;6.304;2022-09-09T06:03:36;23.35;;;11.27;;
59555;SDS011;45374;52.746;6.304;2022-09-09T06:06:05;19.75;;;10.10;;
59555;SDS011;45374;52.746;6.304;2022-09-09T06:08:33;24.48;;;10.07;;
59555;SDS011;45374;52.746;6.304;2022-09-09T06:11:09;22.77;;;11.32;;
59555;SDS011;45374;52.746;6.304;2022-09-09T06:13:40;22.92;;;10.98;;
59555;SDS011;45374;52.746;6.304;2022-09-09T06:16:09;16.95;;;10.15;;
59555;SDS011;45374;52.746;6.304;2022-09-09T06:18:37;17.83;;;9.82;;
59555;SDS011;45374;52.746;6.304;2022-09-09T06:21:04;17.85;;;10.73;;
59555;SDS011;45374;52.746;6.304;2022-09-09T06:23:31;20.27;;;10.20;;
59555;SDS011;45374;52.746;6.304;2022-09-09T06:26:04;23.13;;;10.65;;
59555;SDS011;45374;52.746;6.304;2022-09-09T06:28:34;26.48;;;11.48;;
59555;SDS011;45374;52.746;6.304;2022-09-09T06:31:02;18.30;;;10.45;;
59555;SDS011;45374;52.746;6.304;2022-09-09T06:33:38;19.00;;;10.73;;
59555;SDS011;45374;52.746;6.304;2022-09-09T06:36:06;20.95;;;10.80;;
59555;SDS011;45374;52.746;6.304;2022-09-09T06:38:36;16.17;;;9.52;;
59555;SDS011;45374;52.746;6.304;2022-09-09T06:41:02;19.65;;;9.85;;
59555;SDS011;45374;52.746;6.304;2022-09-09T06:43:28;24.08;;;11.00;;
59555;SDS011;45374;52.746;6.304;2022-09-09T06:45:55;17.30;;;9.45;;
59555;SDS011;45374;52.746;6.304;2022-09-09T06:48:24;22.77;;;10.20;;
59555;SDS011;45374;52.746;6.304;2022-09-09T06:51:27;21.17;;;9.75;;
59555;SDS011;45374;52.746;6.304;2022-09-09T06:53:46;20.85;;;9.98;;
59555;SDS011;45374;52.746;6.304;2022-09-09T06:56:19;17.02;;;9.77;;
59555;SDS011;45374;52.746;6.304;2022-09-09T06:58:52;16.50;;;9.00;;
59555;SDS011;45374;52.746;6.304;2022-09-09T07:01:28;19.80;;;10.35;;
59555;SDS011;45374;52.746;6.304;2022-09-09T07:03:55;20.45;;;10.00;;
59555;SDS011;45374;52.746;6.304;2022-09-09T07:06:27;17.15;;;9.60;;
59555;SDS011;45374;52.746;6.304;2022-09-09T07:08:58;21.83;;;9.37;;
59555;SDS011;45374;52.746;6.304;2022-09-09T07:11:27;17.90;;;9.38;;
59555;SDS011;45374;52.746;6.304;2022-09-09T07:13:54;19.88;;;9.85;;
59555;SDS011;45374;52.746;6.304;2022-09-09T07:16:22;23.60;;;10.15;;
59555;SDS011;45374;52.746;6.304;2022-09-09T07:18:51;15.35;;;9.32;;
59555;SDS011;45374;52.746;6.304;2022-09-09T07:21:17;19.35;;;10.00;;
59555;SDS011;45374;52.746;6.304;2022-09-09T07:23:44;15.88;;;8.82;;
59555;SDS011;45374;52.746;6.304;2022-09-09T07:26:10;19.13;;;9.13;;
59555;SDS011;45374;52.746;6.304;2022-09-09T07:28:38;18.55;;;9.30;;
59555;SDS011;45374;52.746;6.304;2022-09-09T07:31:04;16.25;;;9.35;;
59555;SDS011;45374;52.746;6.304;2022-09-09T07:33:31;20.50;;;9.27;;
59555;SDS011;45374;52.746;6.304;2022-09-09T07:36:18;18.33;;;9.77;;
59555;SDS011;45374;52.746;6.304;2022-09-09T07:38:47;17.08;;;8.90;;
59555;SDS011;45374;52.746;6.304;2022-09-09T07:41:18;19.40;;;9.90;;
59555;SDS011;45374;52.746;6.304;2022-09-09T07:43:55;21.13;;;10.85;;
59555;SDS011;45374;52.746;6.304;2022-09-09T07:46:21;21.33;;;11.05;;
59555;SDS011;45374;52.746;6.304;2022-09-09T07:48:49;18.10;;;10.30;;
59555;SDS011;45374;52.746;6.304;2022-09-09T07:51:19;13.57;;;9.32;;
59555;SDS011;45374;52.746;6.304;2022-09-09T07:53:56;19.13;;;9.63;;
59555;SDS011;45374;52.746;6.304;2022-09-09T07:56:24;14.32;;;8.27;;
59555;SDS011;45374;52.746;6.304;2022-09-09T07:58:52;14.52;;;8.57;;
59555;SDS011;45374;52.746;6.304;2022-09-09T08:01:29;19.40;;;8.50;;
59555;SDS011;45374;52.746;6.304;2022-09-09T08:04:01;17.52;;;8.00;;
59555;SDS011;45374;52.746;6.304;2022-09-09T08:06:29;16.73;;;8.63;;
59555;SDS011;45374;52.746;6.304;2022-09-09T08:09:00;19.23;;;9.33;;
59555;SDS011;45374;52.746;6.304;2022-09-09T08:11:26;14.10;;;8.32;;
59555;SDS011;45374;52.746;6.304;2022-09-09T08:13:53;18.52;;;8.85;;
59555;SDS011;45374;52.746;6.304;2022-09-09T08:16:20;12.80;;;7.57;;
59555;SDS011;45374;52.746;6.304;2022-09-09T08:18:48;18.58;;;7.85;;
59555;SDS011;45374;52.746;6.304;2022-09-09T08:21:16;19.23;;;7.93;;
59555;SDS011;45374;52.746;6.304;2022-09-09T08:23:46;18.02;;;7.30;;
59555;SDS011;45374;52.746;6.304;2022-09-09T08:26:17;16.95;;;7.78;;
59555;SDS011;45374;52.746;6.304;2022-09-09T08:28:46;13.75;;;6.65;;
59555;SDS011;45374;52.746;6.304;2022-09-09T08:31:15;17.25;;;7.60;;
59555;SDS011;45374;52.746;6.304;2022-09-09T08:33:42;17.35;;;8.05;;
59555;SDS011;45374;52.746;6.304;2022-09-09T08:36:10;15.25;;;6.93;;
59555;SDS011;45374;52.746;6.304;2022-09-09T08:38:40;14.63;;;6.75;;
59555;SDS011;45374;52.746;6.304;2022-09-09T08:44:26;15.07;;;5.90;;
59555;SDS011;45374;52.746;6.304;2022-09-09T08:47:09;12.38;;;6.50;;
59555;SDS011;45374;52.746;6.304;2022-09-09T08:50:01;12.23;;;6.50;;
59555;SDS011;45374;52.746;6.304;2022-09-09T08:52:50;16.42;;;6.10;;
59555;SDS011;45374;52.746;6.304;2022-09-09T08:58:19;12.25;;;6.05;;
59555;SDS011;45374;52.746;6.304;2022-09-09T09:03:43;15.77;;;6.35;;
59555;SDS011;45374;52.746;6.304;2022-09-09T09:11:50;12.60;;;5.25;;
59555;SDS011;45374;52.746;6.304;2022-09-09T09:14:23;12.20;;;5.00;;
59555;SDS011;45374;52.746;6.304;2022-09-09T09:19:21;18.55;;;5.68;;
59555;SDS011;45374;52.746;6.304;2022-09-09T09:21:50;19.40;;;6.90;;
59555;SDS011;45374;52.746;6.304;2022-09-09T09:24:35;12.32;;;6.22;;
59555;SDS011;45374;52.746;6.304;2022-09-09T09:27:11;13.07;;;5.50;;
59555;SDS011;45374;52.746;6.304;2022-09-09T09:29:43;11.90;;;5.70;;
59555;SDS011;45374;52.746;6.304;2022-09-09T09:32:11;13.10;;;5.70;;
59555;SDS011;45374;52.746;6.304;2022-09-09T09:34:41;15.48;;;5.15;;
59555;SDS011;45374;52.746;6.304;2022-09-09T09:37:12;12.18;;;5.20;;
59555;SDS011;45374;52.746;6.304;2022-09-09T09:39:44;16.00;;;5.70;;
59555;SDS011;45374;52.746;6.304;2022-09-09T09:42:14;13.27;;;5.03;;
59555;SDS011;45374;52.746;6.304;2022-09-09T09:44:42;14.77;;;5.10;;
59555;SDS011;45374;52.746;6.304;2022-09-09T09:47:18;12.55;;;4.82;;
59555;SDS011;45374;52.746;6.304;2022-09-09T09:49:56;10.27;;;4.97;;
59555;SDS011;45374;52.746;6.304;2022-09-09T09:52:28;13.00;;;4.88;;
59555;SDS011;45374;52.746;6.304;2022-09-09T09:54:55;14.00;;;5.07;;
59555;SDS011;45374;52.746;6.304;2022-09-09T09:57:24;13.00;;;4.50;;
59555;SDS011;45374;52.746;6.304;2022-09-09T10:00:03;10.63;;;4.50;;
59555;SDS011;45374;52.746;6.304;2022-09-09T10:02:39;11.50;;;4.20;;
59555;SDS011;45374;52.746;6.304;2022-09-09T10:18:58;15.32;;;4.32;;
59555;SDS011;45374;52.746;6.304;2022-09-09T10:27:05;11.88;;;4.25;;
59555;SDS011;45374;52.746;6.304;2022-09-09T10:34:43;10.98;;;4.45;;
59555;SDS011;45374;52.746;6.304;2022-09-09T10:37:31;9.07;;;4.10;;
59555;SDS011;45374;52.746;6.304;2022-09-09T10:40:15;10.80;;;4.47;;
59555;SDS011;45374;52.746;6.304;2022-09-09T10:42:46;11.27;;;4.15;;
59555;SDS011;45374;52.746;6.304;2022-09-09T10:45:18;12.02;;;3.90;;
59555;SDS011;45374;52.746;6.304;2022-09-09T10:47:54;13.55;;;3.50;;
59555;SDS011;45374;52.746;6.304;2022-09-09T10:50:50;12.20;;;3.75;;
59555;SDS011;45374;52.746;6.304;2022-09-09T10:56:28;8.70;;;2.90;;
59555;SDS011;45374;52.746;6.304;2022-09-09T11:01:52;8.73;;;3.30;;
59555;SDS011;45374;52.746;6.304;2022-09-09T11:04:24;8.75;;;3.28;;
59555;SDS011;45374;52.746;6.304;2022-09-09T11:06:55;12.93;;;3.17;;
59555;SDS011;45374;52.746;6.304;2022-09-09T11:09:22;9.43;;;3.65;;
59555;SDS011;45374;52.746;6.304;2022-09-09T11:11:55;11.88;;;3.60;;
59555;SDS011;45374;52.746;6.304;2022-09-09T11:16:55;13.20;;;3.70;;
59555;SDS011;45374;52.746;6.304;2022-09-09T11:19:25;12.80;;;3.72;;
59555;SDS011;45374;52.746;6.304;2022-09-09T11:21:53;11.77;;;3.42;;
59555;SDS011;45374;52.746;6.304;2022-09-09T11:24:37;12.20;;;3.50;;
59555;SDS011;45374;52.746;6.304;2022-09-09T11:32:34;9.95;;;3.40;;
59555;SDS011;45374;52.746;6.304;2022-09-09T11:37:53;10.10;;;3.40;;
59555;SDS011;45374;52.746;6.304;2022-09-09T11:40:26;7.38;;;2.63;;
59555;SDS011;45374;52.746;6.304;2022-09-09T11:43:12;9.23;;;2.95;;
59555;SDS011;45374;52.746;6.304;2022-09-09T11:45:56;8.27;;;2.70;;
59555;SDS011;45374;52.746;6.304;2022-09-09T11:48:35;5.78;;;2.88;;
59555;SDS011;45374;52.746;6.304;2022-09-09T11:51:10;8.60;;;2.88;;
59555;SDS011;45374;52.746;6.304;2022-09-09T11:53:50;9.80;;;3.50;;
59555;SDS011;45374;52.746;6.304;2022-09-09T11:59:49;9.52;;;3.00;;
59555;SDS011;45374;52.746;6.304;2022-09-09T12:02:08;7.63;;;2.83;;
59555;SDS011;45374;52.746;6.304;2022-09-09T12:04:40;9.45;;;3.08;;
59555;SDS011;45374;52.746;6.304;2022-09-09T12:10:52;8.35;;;3.05;;
59555;SDS011;45374;52.746;6.304;2022-09-09T12:13:22;8.80;;;3.10;;
59555;SDS011;45374;52.746;6.304;2022-09-09T12:15:50;11.45;;;3.13;;
59555;SDS011;45374;52.746;6.304;2022-09-09T12:18:39;7.40;;;2.67;;
59555;SDS011;45374;52.746;6.304;2022-09-09T12:24:03;9.65;;;3.03;;
59555;SDS011;45374;52.746;6.304;2022-09-09T12:37:16;10.15;;;3.95;;
59555;SDS011;45374;52.746;6.304;2022-09-09T12:39:51;9.20;;;3.50;;
59555;SDS011;45374;52.746;6.304;2022-09-09T12:42:22;10.05;;;3.20;;
59555;SDS011;45374;52.746;6.304;2022-09-09T12:44:52;8.48;;;3.40;;
59555;SDS011;45374;52.746;6.304;2022-09-09T12:47:20;7.38;;;2.95;;
59555;SDS011;45374;52.746;6.304;2022-09-09T12:49:50;7.72;;;2.53;;
59555;SDS011;45374;52.746;6.304;2022-09-09T12:52:24;9.38;;;2.92;;
59555;SDS011;45374;52.746;6.304;2022-09-09T12:54:55;7.07;;;2.58;;
59555;SDS011;45374;52.746;6.304;2022-09-09T12:57:23;8.75;;;2.92;;
59555;SDS011;45374;52.746;6.304;2022-09-09T12:59:50;8.02;;;2.63;;
59555;SDS011;45374;52.746;6.304;2022-09-09T13:04:45;5.25;;;2.50;;
59555;SDS011;45374;52.746;6.304;2022-09-09T13:07:12;5.63;;;2.60;;
59555;SDS011;45374;52.746;6.304;2022-09-09T13:09:38;6.30;;;2.20;;
59555;SDS011;45374;52.746;6.304;2022-09-09T13:12:05;7.97;;;2.45;;
59555;SDS011;45374;52.746;6.304;2022-09-09T13:14:38;6.70;;;2.40;;
59555;SDS011;45374;52.746;6.304;2022-09-09T13:17:04;9.23;;;2.35;;
59555;SDS011;45374;52.746;6.304;2022-09-09T13:19:38;6.57;;;2.55;;
59555;SDS011;45374;52.746;6.304;2022-09-09T13:22:52;7.50;;;2.75;;
59555;SDS011;45374;52.746;6.304;2022-09-09T13:35:56;10.18;;;3.20;;
59555;SDS011;45374;52.746;6.304;2022-09-09T13:38:24;6.47;;;3.00;;
59555;SDS011;45374;52.746;6.304;2022-09-09T13:41:09;11.30;;;3.78;;
59555;SDS011;45374;52.746;6.304;2022-09-09T13:43:45;11.10;;;3.45;;
59555;SDS011;45374;52.746;6.304;2022-09-09T13:46:58;8.73;;;3.42;;
59555;SDS011;45374;52.746;6.304;2022-09-09T13:54:10;5.80;;;3.20;;
59555;SDS011;45374;52.746;6.304;2022-09-09T13:56:38;7.88;;;3.00;;
59555;SDS011;45374;52.746;6.304;2022-09-09T13:59:05;7.03;;;2.85;;
59555;SDS011;45374;52.746;6.304;2022-09-09T14:01:35;10.27;;;3.47;;
59555;SDS011;45374;52.746;6.304;2022-09-09T14:04:02;8.05;;;3.20;;
59555;SDS011;45374;52.746;6.304;2022-09-09T14:06:29;8.10;;;3.05;;
59555;SDS011;45374;52.746;6.304;2022-09-09T14:08:54;3.97;;;2.80;;
59555;SDS011;45374;52.746;6.304;2022-09-09T14:11:20;7.55;;;2.97;;
59555;SDS011;45374;52.746;6.304;2022-09-09T14:13:47;5.47;;;2.67;;
59555;SDS011;45374;52.746;6.304;2022-09-09T14:16:15;7.97;;;2.55;;
59555;SDS011;45374;52.746;6.304;2022-09-09T14:18:44;8.98;;;2.60;;
59555;SDS011;45374;52.746;6.304;2022-09-09T14:21:10;7.25;;;2.85;;
59555;SDS011;45374;52.746;6.304;2022-09-09T14:23:37;8.35;;;3.00;;
59555;SDS011;45374;52.746;6.304;2022-09-09T14:26:03;5.80;;;2.50;;
59555;SDS011;45374;52.746;6.304;2022-09-09T14:28:32;6.57;;;2.70;;
59555;SDS011;45374;52.746;6.304;2022-09-09T14:30:59;7.85;;;3.03;;
59555;SDS011;45374;52.746;6.304;2022-09-09T14:33:26;4.63;;;2.15;;
59555;SDS011;45374;52.746;6.304;2022-09-09T14:35:57;6.10;;;2.40;;
59555;SDS011;45374;52.746;6.304;2022-09-09T14:38:24;6.05;;;2.08;;
59555;SDS011;45374;52.746;6.304;2022-09-09T14:40:50;7.80;;;2.00;;
59555;SDS011;45374;52.746;6.304;2022-09-09T14:43:15;5.07;;;2.17;;
59555;SDS011;45374;52.746;6.304;2022-09-09T14:45:41;4.60;;;2.28;;
59555;SDS011;45374;52.746;6.304;2022-09-09T14:48:08;4.32;;;2.28;;
59555;SDS011;45374;52.746;6.304;2022-09-09T14:50:33;8.93;;;3.10;;
59555;SDS011;45374;52.746;6.304;2022-09-09T14:53:01;6.60;;;2.40;;
59555;SDS011;45374;52.746;6.304;2022-09-09T14:55:27;6.72;;;2.33;;
59555;SDS011;45374;52.746;6.304;2022-09-09T14:57:54;5.40;;;2.13;;
59555;SDS011;45374;52.746;6.304;2022-09-09T15:00:19;4.20;;;1.90;;
59555;SDS011;45374;52.746;6.304;2022-09-09T15:02:45;3.55;;;1.73;;
59555;SDS011;45374;52.746;6.304;2022-09-09T15:05:10;5.50;;;2.42;;
59555;SDS011;45374;52.746;6.304;2022-09-09T15:07:36;5.95;;;2.10;;
59555;SDS011;45374;52.746;6.304;2022-09-09T15:10:02;3.92;;;2.00;;
59555;SDS011;45374;52.746;6.304;2022-09-09T15:12:29;6.18;;;2.42;;
59555;SDS011;45374;52.746;6.304;2022-09-09T15:14:55;6.38;;;2.47;;
59555;SDS011;45374;52.746;6.304;2022-09-09T15:17:20;5.85;;;2.40;;
59555;SDS011;45374;52.746;6.304;2022-09-09T15:19:46;5.78;;;2.95;;
59555;SDS011;45374;52.746;6.304;2022-09-09T15:22:12;8.48;;;3.10;;
59555;SDS011;45374;52.746;6.304;2022-09-09T15:24:38;4.63;;;2.95;;
59555;SDS011;45374;52.746;6.304;2022-09-09T15:27:03;10.50;;;3.28;;
59555;SDS011;45374;52.746;6.304;2022-09-09T15:29:29;6.32;;;3.22;;
59555;SDS011;45374;52.746;6.304;2022-09-09T15:31:55;8.00;;;3.00;;
59555;SDS011;45374;52.746;6.304;2022-09-09T15:34:20;6.47;;;3.00;;
59555;SDS011;45374;52.746;6.304;2022-09-09T15:36:46;8.80;;;3.17;;
59555;SDS011;45374;52.746;6.304;2022-09-09T15:39:13;5.93;;;3.13;;
59555;SDS011;45374;52.746;6.304;2022-09-09T15:41:41;8.30;;;3.30;;
59555;SDS011;45374;52.746;6.304;2022-09-09T15:44:08;6.35;;;3.30;;
59555;SDS011;45374;52.746;6.304;2022-09-09T15:46:38;4.15;;;2.70;;
59555;SDS011;45374;52.746;6.304;2022-09-09T15:51:36;9.20;;;3.83;;
59555;SDS011;45374;52.746;6.304;2022-09-09T15:54:03;7.70;;;3.53;;
59555;SDS011;45374;52.746;6.304;2022-09-09T15:56:30;7.07;;;4.07;;
59555;SDS011;45374;52.746;6.304;2022-09-09T15:58:56;11.20;;;4.07;;
59555;SDS011;45374;52.746;6.304;2022-09-09T16:01:23;13.60;;;4.50;;
59555;SDS011;45374;52.746;6.304;2022-09-09T16:03:50;7.65;;;4.50;;
59555;SDS011;45374;52.746;6.304;2022-09-09T16:06:17;7.15;;;4.57;;
59555;SDS011;45374;52.746;6.304;2022-09-09T16:08:46;8.98;;;4.68;;
59555;SDS011;45374;52.746;6.304;2022-09-09T16:11:18;8.63;;;4.57;;
59555;SDS011;45374;52.746;6.304;2022-09-09T16:13:52;6.88;;;4.38;;
59555;SDS011;45374;52.746;6.304;2022-09-09T16:16:19;7.90;;;4.28;;
59555;SDS011;45374;52.746;6.304;2022-09-09T16:18:48;12.77;;;4.47;;
59555;SDS011;45374;52.746;6.304;2022-09-09T16:21:21;8.15;;;4.53;;
59555;SDS011;45374;52.746;6.304;2022-09-09T16:23:51;8.60;;;4.43;;
59555;SDS011;45374;52.746;6.304;2022-09-09T16:26:21;10.10;;;4.53;;
59555;SDS011;45374;52.746;6.304;2022-09-09T16:28:47;8.05;;;4.38;;
59555;SDS011;45374;52.746;6.304;2022-09-09T16:31:13;7.28;;;4.65;;
59555;SDS011;45374;52.746;6.304;2022-09-09T16:33:44;5.95;;;4.35;;
59555;SDS011;45374;52.746;6.304;2022-09-09T16:36:21;9.45;;;4.70;;
59555;SDS011;45374;52.746;6.304;2022-09-09T16:38:52;6.35;;;4.10;;
59555;SDS011;45374;52.746;6.304;2022-09-09T16:41:19;8.88;;;4.50;;
59555;SDS011;45374;52.746;6.304;2022-09-09T16:43:45;7.57;;;3.90;;
59555;SDS011;45374;52.746;6.304;2022-09-09T16:46:12;10.18;;;5.00;;
59555;SDS011;45374;52.746;6.304;2022-09-09T16:48:40;8.65;;;4.50;;
59555;SDS011;45374;52.746;6.304;2022-09-09T16:51:09;7.43;;;4.13;;
59555;SDS011;45374;52.746;6.304;2022-09-09T16:53:39;5.43;;;4.07;;
59555;SDS011;45374;52.746;6.304;2022-09-09T16:56:07;7.68;;;3.72;;
59555;SDS011;45374;52.746;6.304;2022-09-09T16:58:48;8.48;;;3.72;;
59555;SDS011;45374;52.746;6.304;2022-09-09T17:01:15;5.85;;;3.38;;
59555;SDS011;45374;52.746;6.304;2022-09-09T17:03:40;7.75;;;3.22;;
59555;SDS011;45374;52.746;6.304;2022-09-09T17:06:13;8.60;;;3.28;;
59555;SDS011;45374;52.746;6.304;2022-09-09T17:08:40;6.25;;;3.67;;
59555;SDS011;45374;52.746;6.304;2022-09-09T17:11:13;10.77;;;3.83;;
59555;SDS011;45374;52.746;6.304;2022-09-09T17:13:43;7.25;;;3.55;;